sensor_id;sensor_type;location;lat;lon;timestamp;P1;durP1;ratioP1;P2;durP2;ratioP2
14052;SDS011;7101;51.600;7.310;2022-09-01T00:00:38;3.03;;;1.23;;
14052;SDS011;7101;51.600;7.310;2022-09-01T00:03:07;3.40;;;1.10;;
14052;SDS011;7101;51.600;7.310;2022-09-01T00:05:36;3.10;;;1.20;;
14052;SDS011;7101;51.600;7.310;2022-09-01T00:08:03;2.67;;;1.15;;
14052;SDS011;7101;51.600;7.310;2022-09-01T00:10:30;2.70;;;1.30;;
14052;SDS011;7101;51.600;7.310;2022-09-01T00:12:57;2.35;;;1.20;;
14052;SDS011;7101;51.600;7.310;2022-09-01T00:15:24;6.00;;;1.40;;
14052;SDS011;7101;51.600;7.310;2022-09-01T00:17:51;2.63;;;1.23;;
14052;SDS011;7101;51.600;7.310;2022-09-01T00:20:20;2.90;;;1.30;;
14052;SDS011;7101;51.600;7.310;2022-09-01T00:22:46;1.80;;;1.10;;
14052;SDS011;7101;51.600;7.310;2022-09-01T00:25:14;1.85;;;1.20;;
14052;SDS011;7101;51.600;7.310;2022-09-01T00:27:42;3.03;;;1.30;;
14052;SDS011;7101;51.600;7.310;2022-09-01T00:30:10;3.40;;;1.30;;
14052;SDS011;7101;51.600;7.310;2022-09-01T00:32:37;2.97;;;1.27;;
14052;SDS011;7101;51.600;7.310;2022-09-01T00:35:04;2.75;;;1.17;;
14052;SDS011;7101;51.600;7.310;2022-09-01T00:37:34;3.08;;;1.10;;
14052;SDS011;7101;51.600;7.310;2022-09-01T00:40:01;2.08;;;1.30;;
14052;SDS011;7101;51.600;7.310;2022-09-01T00:42:28;2.22;;;1.00;;
14052;SDS011;7101;51.600;7.310;2022-09-01T00:44:55;4.00;;;1.10;;
14052;SDS011;7101;51.600;7.310;2022-09-01T00:47:22;1.60;;;1.08;;
14052;SDS011;7101;51.600;7.310;2022-09-01T00:49:48;3.28;;;1.08;;
14052;SDS011;7101;51.600;7.310;2022-09-01T00:52:18;11.00;;;1.60;;
14052;SDS011;7101;51.600;7.310;2022-09-01T00:54:50;6.10;;;1.20;;
14052;SDS011;7101;51.600;7.310;2022-09-01T00:57:22;4.40;;;1.45;;
14052;SDS011;7101;51.600;7.310;2022-09-01T00:59:51;2.78;;;1.30;;
14052;SDS011;7101;51.600;7.310;2022-09-01T01:02:21;3.05;;;1.23;;
14052;SDS011;7101;51.600;7.310;2022-09-01T01:04:48;5.00;;;1.52;;
14052;SDS011;7101;51.600;7.310;2022-09-01T01:07:16;3.20;;;1.10;;
14052;SDS011;7101;51.600;7.310;2022-09-01T01:09:46;5.25;;;1.27;;
14052;SDS011;7101;51.600;7.310;2022-09-01T01:12:21;2.42;;;1.25;;
14052;SDS011;7101;51.600;7.310;2022-09-01T01:14:49;2.30;;;1.25;;
14052;SDS011;7101;51.600;7.310;2022-09-01T01:17:16;3.58;;;1.20;;
14052;SDS011;7101;51.600;7.310;2022-09-01T01:19:45;4.15;;;1.27;;
14052;SDS011;7101;51.600;7.310;2022-09-01T01:22:37;4.00;;;1.60;;
14052;SDS011;7101;51.600;7.310;2022-09-01T01:25:29;3.13;;;1.52;;
14052;SDS011;7101;51.600;7.310;2022-09-01T01:28:06;3.03;;;1.48;;
14052;SDS011;7101;51.600;7.310;2022-09-01T01:30:37;5.05;;;1.60;;
14052;SDS011;7101;51.600;7.310;2022-09-01T01:33:07;3.80;;;1.30;;
14052;SDS011;7101;51.600;7.310;2022-09-01T01:35:34;5.68;;;1.30;;
14052;SDS011;7101;51.600;7.310;2022-09-01T01:38:02;4.20;;;1.25;;
14052;SDS011;7101;51.600;7.310;2022-09-01T01:40:33;1.90;;;1.42;;
14052;SDS011;7101;51.600;7.310;2022-09-01T01:43:00;2.88;;;1.50;;
14052;SDS011;7101;51.600;7.310;2022-09-01T01:45:27;1.98;;;1.08;;
14052;SDS011;7101;51.600;7.310;2022-09-01T01:47:54;2.13;;;1.40;;
14052;SDS011;7101;51.600;7.310;2022-09-01T01:50:22;2.15;;;1.13;;
14052;SDS011;7101;51.600;7.310;2022-09-01T01:52:50;3.03;;;1.20;;
14052;SDS011;7101;51.600;7.310;2022-09-01T01:55:18;2.28;;;1.20;;
14052;SDS011;7101;51.600;7.310;2022-09-01T01:57:49;4.22;;;1.30;;
14052;SDS011;7101;51.600;7.310;2022-09-01T02:00:17;4.10;;;1.50;;
14052;SDS011;7101;51.600;7.310;2022-09-01T02:02:46;1.08;;;0.93;;
14052;SDS011;7101;51.600;7.310;2022-09-01T02:05:18;4.25;;;1.30;;
14052;SDS011;7101;51.600;7.310;2022-09-01T02:07:50;2.88;;;1.70;;
14052;SDS011;7101;51.600;7.310;2022-09-01T02:10:20;2.63;;;1.50;;
14052;SDS011;7101;51.600;7.310;2022-09-01T02:12:52;3.38;;;1.42;;
14052;SDS011;7101;51.600;7.310;2022-09-01T02:15:20;4.43;;;1.33;;
14052;SDS011;7101;51.600;7.310;2022-09-01T02:17:47;3.35;;;1.45;;
14052;SDS011;7101;51.600;7.310;2022-09-01T02:20:14;2.42;;;1.30;;
14052;SDS011;7101;51.600;7.310;2022-09-01T02:22:41;6.80;;;1.20;;
14052;SDS011;7101;51.600;7.310;2022-09-01T02:25:09;4.40;;;1.40;;
14052;SDS011;7101;51.600;7.310;2022-09-01T02:27:41;2.95;;;1.45;;
14052;SDS011;7101;51.600;7.310;2022-09-01T02:30:10;4.45;;;1.45;;
14052;SDS011;7101;51.600;7.310;2022-09-01T02:32:37;2.83;;;1.40;;
14052;SDS011;7101;51.600;7.310;2022-09-01T02:35:06;1.63;;;1.20;;
14052;SDS011;7101;51.600;7.310;2022-09-01T02:37:34;3.05;;;1.27;;
14052;SDS011;7101;51.600;7.310;2022-09-01T02:40:04;3.58;;;1.70;;
14052;SDS011;7101;51.600;7.310;2022-09-01T02:42:34;2.60;;;1.20;;
14052;SDS011;7101;51.600;7.310;2022-09-01T02:45:05;5.30;;;1.38;;
14052;SDS011;7101;51.600;7.310;2022-09-01T02:47:42;2.15;;;1.20;;
14052;SDS011;7101;51.600;7.310;2022-09-01T02:50:10;5.47;;;1.35;;
14052;SDS011;7101;51.600;7.310;2022-09-01T02:56:05;3.13;;;1.27;;
14052;SDS011;7101;51.600;7.310;2022-09-01T02:58:36;3.35;;;1.42;;
14052;SDS011;7101;51.600;7.310;2022-09-01T03:01:11;2.97;;;1.30;;
14052;SDS011;7101;51.600;7.310;2022-09-01T03:03:42;3.80;;;1.40;;
14052;SDS011;7101;51.600;7.310;2022-09-01T03:06:09;3.00;;;1.23;;
14052;SDS011;7101;51.600;7.310;2022-09-01T03:08:37;7.13;;;1.27;;
14052;SDS011;7101;51.600;7.310;2022-09-01T03:11:04;5.35;;;1.15;;
14052;SDS011;7101;51.600;7.310;2022-09-01T03:13:35;4.25;;;1.70;;
14052;SDS011;7101;51.600;7.310;2022-09-01T03:16:03;3.42;;;1.50;;
14052;SDS011;7101;51.600;7.310;2022-09-01T03:18:31;3.60;;;1.30;;
14052;SDS011;7101;51.600;7.310;2022-09-01T03:20:59;2.55;;;1.30;;
14052;SDS011;7101;51.600;7.310;2022-09-01T03:23:28;3.55;;;1.38;;
14052;SDS011;7101;51.600;7.310;2022-09-01T03:25:57;3.22;;;1.40;;
14052;SDS011;7101;51.600;7.310;2022-09-01T03:28:24;5.45;;;1.30;;
14052;SDS011;7101;51.600;7.310;2022-09-01T03:30:51;4.38;;;1.40;;
14052;SDS011;7101;51.600;7.310;2022-09-01T03:33:21;5.00;;;1.52;;
14052;SDS011;7101;51.600;7.310;2022-09-01T03:35:50;3.30;;;1.50;;
14052;SDS011;7101;51.600;7.310;2022-09-01T03:38:18;3.85;;;1.35;;
14052;SDS011;7101;51.600;7.310;2022-09-01T03:40:48;5.13;;;1.30;;
14052;SDS011;7101;51.600;7.310;2022-09-01T03:43:18;5.03;;;1.33;;
14052;SDS011;7101;51.600;7.310;2022-09-01T03:45:47;2.28;;;1.23;;
14052;SDS011;7101;51.600;7.310;2022-09-01T03:48:14;1.73;;;1.15;;
14052;SDS011;7101;51.600;7.310;2022-09-01T03:50:41;5.43;;;1.80;;
14052;SDS011;7101;51.600;7.310;2022-09-01T03:53:10;2.95;;;1.20;;
14052;SDS011;7101;51.600;7.310;2022-09-01T03:55:39;1.85;;;1.20;;
14052;SDS011;7101;51.600;7.310;2022-09-01T03:58:09;3.05;;;1.30;;
14052;SDS011;7101;51.600;7.310;2022-09-01T04:00:40;2.53;;;1.20;;
14052;SDS011;7101;51.600;7.310;2022-09-01T04:03:09;2.10;;;1.08;;
14052;SDS011;7101;51.600;7.310;2022-09-01T04:05:38;5.05;;;1.63;;
14052;SDS011;7101;51.600;7.310;2022-09-01T04:08:09;5.57;;;1.40;;
14052;SDS011;7101;51.600;7.310;2022-09-01T04:10:41;2.85;;;1.50;;
14052;SDS011;7101;51.600;7.310;2022-09-01T04:13:13;2.90;;;1.50;;
14052;SDS011;7101;51.600;7.310;2022-09-01T04:15:41;3.08;;;1.40;;
14052;SDS011;7101;51.600;7.310;2022-09-01T04:18:08;2.90;;;1.63;;
14052;SDS011;7101;51.600;7.310;2022-09-01T04:20:34;5.53;;;1.40;;
14052;SDS011;7101;51.600;7.310;2022-09-01T04:23:12;7.70;;;1.30;;
14052;SDS011;7101;51.600;7.310;2022-09-01T04:25:46;3.40;;;1.30;;
14052;SDS011;7101;51.600;7.310;2022-09-01T04:28:14;2.40;;;1.50;;
14052;SDS011;7101;51.600;7.310;2022-09-01T04:30:47;1.20;;;1.08;;
14052;SDS011;7101;51.600;7.310;2022-09-01T04:33:15;3.65;;;1.33;;
14052;SDS011;7101;51.600;7.310;2022-09-01T04:35:43;2.05;;;1.40;;
14052;SDS011;7101;51.600;7.310;2022-09-01T04:38:10;2.25;;;1.42;;
14052;SDS011;7101;51.600;7.310;2022-09-01T04:40:40;5.38;;;1.25;;
14052;SDS011;7101;51.600;7.310;2022-09-01T04:43:08;2.88;;;1.20;;
14052;SDS011;7101;51.600;7.310;2022-09-01T04:45:36;2.03;;;1.30;;
14052;SDS011;7101;51.600;7.310;2022-09-01T04:48:03;3.30;;;1.33;;
14052;SDS011;7101;51.600;7.310;2022-09-01T04:50:31;6.05;;;1.55;;
14052;SDS011;7101;51.600;7.310;2022-09-01T04:52:59;4.07;;;1.20;;
14052;SDS011;7101;51.600;7.310;2022-09-01T04:55:27;6.25;;;1.80;;
14052;SDS011;7101;51.600;7.310;2022-09-01T04:57:55;4.38;;;1.40;;
14052;SDS011;7101;51.600;7.310;2022-09-01T05:00:24;2.63;;;1.52;;
14052;SDS011;7101;51.600;7.310;2022-09-01T05:02:56;6.15;;;1.60;;
14052;SDS011;7101;51.600;7.310;2022-09-01T05:05:27;3.15;;;1.35;;
14052;SDS011;7101;51.600;7.310;2022-09-01T05:08:03;4.07;;;1.48;;
14052;SDS011;7101;51.600;7.310;2022-09-01T05:10:31;4.28;;;1.35;;
14052;SDS011;7101;51.600;7.310;2022-09-01T05:12:58;5.18;;;1.60;;
14052;SDS011;7101;51.600;7.310;2022-09-01T05:15:27;3.80;;;1.38;;
14052;SDS011;7101;51.600;7.310;2022-09-01T05:17:54;8.40;;;1.60;;
14052;SDS011;7101;51.600;7.310;2022-09-01T05:20:23;2.72;;;1.20;;
14052;SDS011;7101;51.600;7.310;2022-09-01T05:22:54;2.28;;;1.42;;
14052;SDS011;7101;51.600;7.310;2022-09-01T05:25:21;2.17;;;1.42;;
14052;SDS011;7101;51.600;7.310;2022-09-01T05:27:48;4.10;;;1.50;;
14052;SDS011;7101;51.600;7.310;2022-09-01T05:30:16;1.63;;;1.30;;
14052;SDS011;7101;51.600;7.310;2022-09-01T05:32:45;6.13;;;1.50;;
14052;SDS011;7101;51.600;7.310;2022-09-01T05:35:13;7.95;;;1.45;;
14052;SDS011;7101;51.600;7.310;2022-09-01T05:37:40;5.45;;;1.80;;
14052;SDS011;7101;51.600;7.310;2022-09-01T05:40:08;3.35;;;1.50;;
14052;SDS011;7101;51.600;7.310;2022-09-01T05:42:40;4.30;;;1.50;;
14052;SDS011;7101;51.600;7.310;2022-09-01T05:45:08;6.68;;;1.70;;
14052;SDS011;7101;51.600;7.310;2022-09-01T05:47:36;2.90;;;1.30;;
14052;SDS011;7101;51.600;7.310;2022-09-01T05:50:05;3.15;;;1.30;;
14052;SDS011;7101;51.600;7.310;2022-09-01T05:52:35;2.65;;;1.50;;
14052;SDS011;7101;51.600;7.310;2022-09-01T05:55:04;3.90;;;1.60;;
14052;SDS011;7101;51.600;7.310;2022-09-01T05:57:33;2.90;;;1.50;;
14052;SDS011;7101;51.600;7.310;2022-09-01T06:00:01;7.43;;;1.80;;
14052;SDS011;7101;51.600;7.310;2022-09-01T06:02:35;2.53;;;1.42;;
14052;SDS011;7101;51.600;7.310;2022-09-01T06:05:05;5.93;;;1.50;;
14052;SDS011;7101;51.600;7.310;2022-09-01T06:07:33;5.63;;;1.40;;
14052;SDS011;7101;51.600;7.310;2022-09-01T06:10:02;3.67;;;1.58;;
14052;SDS011;7101;51.600;7.310;2022-09-01T06:12:30;4.82;;;1.45;;
14052;SDS011;7101;51.600;7.310;2022-09-01T06:14:58;2.92;;;1.63;;
14052;SDS011;7101;51.600;7.310;2022-09-01T06:17:25;4.53;;;1.50;;
14052;SDS011;7101;51.600;7.310;2022-09-01T06:19:54;6.43;;;1.40;;
14052;SDS011;7101;51.600;7.310;2022-09-01T06:22:23;2.97;;;1.50;;
14052;SDS011;7101;51.600;7.310;2022-09-01T06:24:52;4.88;;;1.73;;
14052;SDS011;7101;51.600;7.310;2022-09-01T06:27:20;2.42;;;1.33;;
14052;SDS011;7101;51.600;7.310;2022-09-01T06:29:47;4.25;;;1.65;;
14052;SDS011;7101;51.600;7.310;2022-09-01T06:32:17;4.60;;;1.60;;
14052;SDS011;7101;51.600;7.310;2022-09-01T06:34:44;5.45;;;1.65;;
14052;SDS011;7101;51.600;7.310;2022-09-01T06:37:13;4.88;;;1.50;;
14052;SDS011;7101;51.600;7.310;2022-09-01T06:39:43;2.72;;;1.33;;
14052;SDS011;7101;51.600;7.310;2022-09-01T06:42:09;4.65;;;1.38;;
14052;SDS011;7101;51.600;7.310;2022-09-01T06:44:38;3.42;;;1.48;;
14052;SDS011;7101;51.600;7.310;2022-09-01T06:47:05;4.40;;;1.58;;
14052;SDS011;7101;51.600;7.310;2022-09-01T06:49:33;4.53;;;1.50;;
14052;SDS011;7101;51.600;7.310;2022-09-01T06:52:01;3.53;;;1.70;;
14052;SDS011;7101;51.600;7.310;2022-09-01T06:54:29;6.07;;;1.42;;
14052;SDS011;7101;51.600;7.310;2022-09-01T06:57:02;4.80;;;2.05;;
14052;SDS011;7101;51.600;7.310;2022-09-01T06:59:30;2.90;;;1.90;;
14052;SDS011;7101;51.600;7.310;2022-09-01T07:01:56;6.97;;;2.00;;
14052;SDS011;7101;51.600;7.310;2022-09-01T07:04:25;5.15;;;1.90;;
14052;SDS011;7101;51.600;7.310;2022-09-01T07:06:54;6.30;;;2.22;;
14052;SDS011;7101;51.600;7.310;2022-09-01T07:09:21;8.07;;;2.53;;
14052;SDS011;7101;51.600;7.310;2022-09-01T07:11:49;5.60;;;2.20;;
14052;SDS011;7101;51.600;7.310;2022-09-01T07:14:18;6.93;;;2.05;;
14052;SDS011;7101;51.600;7.310;2022-09-01T07:16:45;3.33;;;1.88;;
14052;SDS011;7101;51.600;7.310;2022-09-01T07:19:11;5.28;;;2.08;;
14052;SDS011;7101;51.600;7.310;2022-09-01T07:21:39;4.22;;;2.20;;
14052;SDS011;7101;51.600;7.310;2022-09-01T07:24:07;7.78;;;2.65;;
14052;SDS011;7101;51.600;7.310;2022-09-01T07:26:35;6.63;;;2.15;;
14052;SDS011;7101;51.600;7.310;2022-09-01T07:29:03;5.75;;;2.17;;
14052;SDS011;7101;51.600;7.310;2022-09-01T07:31:33;4.53;;;2.05;;
14052;SDS011;7101;51.600;7.310;2022-09-01T07:34:03;5.47;;;2.00;;
14052;SDS011;7101;51.600;7.310;2022-09-01T07:36:36;6.38;;;1.90;;
14052;SDS011;7101;51.600;7.310;2022-09-01T07:39:05;3.17;;;1.48;;
14052;SDS011;7101;51.600;7.310;2022-09-01T07:41:32;5.30;;;1.45;;
14052;SDS011;7101;51.600;7.310;2022-09-01T07:44:00;2.33;;;1.65;;
14052;SDS011;7101;51.600;7.310;2022-09-01T07:46:29;5.38;;;1.50;;
14052;SDS011;7101;51.600;7.310;2022-09-01T07:48:59;6.43;;;1.60;;
14052;SDS011;7101;51.600;7.310;2022-09-01T07:51:27;5.65;;;1.85;;
14052;SDS011;7101;51.600;7.310;2022-09-01T07:53:55;6.25;;;1.60;;
14052;SDS011;7101;51.600;7.310;2022-09-01T07:56:23;7.47;;;1.85;;
14052;SDS011;7101;51.600;7.310;2022-09-01T07:58:50;3.28;;;1.63;;
14052;SDS011;7101;51.600;7.310;2022-09-01T08:01:18;3.00;;;1.70;;
14052;SDS011;7101;51.600;7.310;2022-09-01T08:03:47;4.68;;;1.58;;
14052;SDS011;7101;51.600;7.310;2022-09-01T08:06:18;4.78;;;1.50;;
14052;SDS011;7101;51.600;7.310;2022-09-01T08:08:46;6.28;;;1.40;;
14052;SDS011;7101;51.600;7.310;2022-09-01T08:11:15;3.50;;;1.27;;
14052;SDS011;7101;51.600;7.310;2022-09-01T08:13:44;6.28;;;1.52;;
14052;SDS011;7101;51.600;7.310;2022-09-01T08:16:11;3.00;;;1.30;;
14052;SDS011;7101;51.600;7.310;2022-09-01T08:18:38;6.57;;;1.88;;
14052;SDS011;7101;51.600;7.310;2022-09-01T08:21:09;2.22;;;1.13;;
14052;SDS011;7101;51.600;7.310;2022-09-01T08:23:38;3.30;;;1.48;;
14052;SDS011;7101;51.600;7.310;2022-09-01T08:26:05;3.00;;;1.50;;
14052;SDS011;7101;51.600;7.310;2022-09-01T08:28:33;5.38;;;1.50;;
14052;SDS011;7101;51.600;7.310;2022-09-01T08:31:04;5.07;;;1.60;;
14052;SDS011;7101;51.600;7.310;2022-09-01T08:33:32;3.03;;;1.55;;
14052;SDS011;7101;51.600;7.310;2022-09-01T08:35:59;6.32;;;1.50;;
14052;SDS011;7101;51.600;7.310;2022-09-01T08:38:27;4.18;;;1.85;;
14052;SDS011;7101;51.600;7.310;2022-09-01T08:40:56;3.58;;;1.60;;
14052;SDS011;7101;51.600;7.310;2022-09-01T08:43:28;2.42;;;1.35;;
14052;SDS011;7101;51.600;7.310;2022-09-01T08:46:12;4.22;;;1.60;;
14052;SDS011;7101;51.600;7.310;2022-09-01T08:48:42;2.42;;;1.50;;
14052;SDS011;7101;51.600;7.310;2022-09-01T08:51:13;2.92;;;1.42;;
14052;SDS011;7101;51.600;7.310;2022-09-01T08:53:56;2.75;;;1.50;;
14052;SDS011;7101;51.600;7.310;2022-09-01T08:56:29;6.10;;;1.67;;
14052;SDS011;7101;51.600;7.310;2022-09-01T08:59:02;4.45;;;1.40;;
14052;SDS011;7101;51.600;7.310;2022-09-01T09:01:30;5.22;;;1.45;;
14052;SDS011;7101;51.600;7.310;2022-09-01T09:04:10;3.60;;;1.40;;
14052;SDS011;7101;51.600;7.310;2022-09-01T09:06:46;3.40;;;1.40;;
14052;SDS011;7101;51.600;7.310;2022-09-01T09:09:20;2.83;;;1.38;;
14052;SDS011;7101;51.600;7.310;2022-09-01T09:12:06;1.83;;;1.20;;
14052;SDS011;7101;51.600;7.310;2022-09-01T09:14:51;3.30;;;1.45;;
14052;SDS011;7101;51.600;7.310;2022-09-01T09:17:28;5.75;;;1.50;;
14052;SDS011;7101;51.600;7.310;2022-09-01T09:20:00;3.72;;;1.40;;
14052;SDS011;7101;51.600;7.310;2022-09-01T09:22:27;3.42;;;1.52;;
14052;SDS011;7101;51.600;7.310;2022-09-01T09:24:57;3.72;;;1.25;;
14052;SDS011;7101;51.600;7.310;2022-09-01T09:27:30;3.58;;;1.30;;
14052;SDS011;7101;51.600;7.310;2022-09-01T09:29:59;2.60;;;1.08;;
14052;SDS011;7101;51.600;7.310;2022-09-01T09:32:41;3.33;;;1.20;;
14052;SDS011;7101;51.600;7.310;2022-09-01T09:35:19;2.15;;;1.30;;
14052;SDS011;7101;51.600;7.310;2022-09-01T09:37:49;2.10;;;1.23;;
14052;SDS011;7101;51.600;7.310;2022-09-01T09:40:16;5.95;;;1.38;;
14052;SDS011;7101;51.600;7.310;2022-09-01T09:43:04;2.53;;;1.17;;
14052;SDS011;7101;51.600;7.310;2022-09-01T09:45:33;2.20;;;1.17;;
14052;SDS011;7101;51.600;7.310;2022-09-01T09:48:06;2.88;;;1.35;;
14052;SDS011;7101;51.600;7.310;2022-09-01T09:50:35;4.85;;;1.40;;
14052;SDS011;7101;51.600;7.310;2022-09-01T09:55:56;4.22;;;1.70;;
14052;SDS011;7101;51.600;7.310;2022-09-01T09:58:29;2.15;;;1.30;;
14052;SDS011;7101;51.600;7.310;2022-09-01T10:01:03;3.70;;;1.40;;
14052;SDS011;7101;51.600;7.310;2022-09-01T10:03:33;1.85;;;1.30;;
14052;SDS011;7101;51.600;7.310;2022-09-01T10:06:08;3.40;;;1.20;;
14052;SDS011;7101;51.600;7.310;2022-09-01T10:08:38;4.57;;;1.33;;
14052;SDS011;7101;51.600;7.310;2022-09-01T10:11:10;5.47;;;1.45;;
14052;SDS011;7101;51.600;7.310;2022-09-01T10:13:52;4.00;;;1.08;;
14052;SDS011;7101;51.600;7.310;2022-09-01T10:16:21;2.97;;;1.10;;
14052;SDS011;7101;51.600;7.310;2022-09-01T10:18:52;2.45;;;1.10;;
14052;SDS011;7101;51.600;7.310;2022-09-01T10:21:25;3.38;;;1.00;;
14052;SDS011;7101;51.600;7.310;2022-09-01T10:23:57;2.90;;;1.10;;
14052;SDS011;7101;51.600;7.310;2022-09-01T10:26:25;1.60;;;1.00;;
14052;SDS011;7101;51.600;7.310;2022-09-01T10:29:01;2.33;;;1.13;;
14052;SDS011;7101;51.600;7.310;2022-09-01T10:31:34;1.90;;;1.05;;
14052;SDS011;7101;51.600;7.310;2022-09-01T10:34:05;4.72;;;1.10;;
14052;SDS011;7101;51.600;7.310;2022-09-01T10:36:38;2.42;;;1.15;;
14052;SDS011;7101;51.600;7.310;2022-09-01T10:39:09;4.50;;;1.30;;
14052;SDS011;7101;51.600;7.310;2022-09-01T10:41:45;2.17;;;1.20;;
14052;SDS011;7101;51.600;7.310;2022-09-01T10:44:20;2.75;;;1.10;;
14052;SDS011;7101;51.600;7.310;2022-09-01T10:46:50;2.95;;;1.10;;
14052;SDS011;7101;51.600;7.310;2022-09-01T10:49:19;2.05;;;1.30;;
14052;SDS011;7101;51.600;7.310;2022-09-01T10:52:09;4.40;;;1.30;;
14052;SDS011;7101;51.600;7.310;2022-09-01T10:57:27;1.92;;;1.23;;
14052;SDS011;7101;51.600;7.310;2022-09-01T11:06:19;2.63;;;1.13;;
14052;SDS011;7101;51.600;7.310;2022-09-01T11:09:18;4.85;;;1.48;;
14052;SDS011;7101;51.600;7.310;2022-09-01T11:11:50;3.30;;;1.13;;
14052;SDS011;7101;51.600;7.310;2022-09-01T11:14:47;2.65;;;1.20;;
14052;SDS011;7101;51.600;7.310;2022-09-01T11:17:17;3.40;;;1.55;;
14052;SDS011;7101;51.600;7.310;2022-09-01T11:19:46;5.85;;;1.30;;
14052;SDS011;7101;51.600;7.310;2022-09-01T11:22:32;3.22;;;1.40;;
14052;SDS011;7101;51.600;7.310;2022-09-01T11:25:11;7.55;;;1.40;;
14052;SDS011;7101;51.600;7.310;2022-09-01T11:31:15;6.07;;;1.33;;
14052;SDS011;7101;51.600;7.310;2022-09-01T11:33:52;2.60;;;1.17;;
14052;SDS011;7101;51.600;7.310;2022-09-01T11:36:46;5.03;;;1.40;;
14052;SDS011;7101;51.600;7.310;2022-09-01T11:39:30;2.40;;;1.33;;
14052;SDS011;7101;51.600;7.310;2022-09-01T11:42:02;2.08;;;1.27;;
14052;SDS011;7101;51.600;7.310;2022-09-01T11:44:36;4.18;;;1.70;;
14052;SDS011;7101;51.600;7.310;2022-09-01T11:47:10;3.67;;;1.50;;
14052;SDS011;7101;51.600;7.310;2022-09-01T11:49:45;7.70;;;1.60;;
14052;SDS011;7101;51.600;7.310;2022-09-01T11:52:15;2.60;;;1.30;;
14052;SDS011;7101;51.600;7.310;2022-09-01T11:54:45;4.10;;;1.10;;
14052;SDS011;7101;51.600;7.310;2022-09-01T12:00:02;1.85;;;1.23;;
14052;SDS011;7101;51.600;7.310;2022-09-01T12:02:32;3.70;;;1.40;;
14052;SDS011;7101;51.600;7.310;2022-09-01T12:05:00;3.88;;;1.13;;
14052;SDS011;7101;51.600;7.310;2022-09-01T12:07:33;2.88;;;1.20;;
14052;SDS011;7101;51.600;7.310;2022-09-01T12:10:12;3.47;;;1.30;;
14052;SDS011;7101;51.600;7.310;2022-09-01T12:12:43;2.10;;;1.10;;
14052;SDS011;7101;51.600;7.310;2022-09-01T12:15:16;2.17;;;1.27;;
14052;SDS011;7101;51.600;7.310;2022-09-01T12:17:45;1.70;;;1.17;;
14052;SDS011;7101;51.600;7.310;2022-09-01T12:20:19;3.20;;;1.33;;
14052;SDS011;7101;51.600;7.310;2022-09-01T12:22:52;2.45;;;1.17;;
14052;SDS011;7101;51.600;7.310;2022-09-01T12:25:20;2.95;;;1.30;;
14052;SDS011;7101;51.600;7.310;2022-09-01T12:27:50;1.52;;;1.23;;
14052;SDS011;7101;51.600;7.310;2022-09-01T12:30:17;2.40;;;1.20;;
14052;SDS011;7101;51.600;7.310;2022-09-01T12:32:45;2.13;;;1.10;;
14052;SDS011;7101;51.600;7.310;2022-09-01T12:35:14;2.92;;;1.30;;
14052;SDS011;7101;51.600;7.310;2022-09-01T12:37:46;3.97;;;1.25;;
14052;SDS011;7101;51.600;7.310;2022-09-01T12:40:22;3.35;;;1.15;;
14052;SDS011;7101;51.600;7.310;2022-09-01T12:42:51;2.00;;;1.40;;
14052;SDS011;7101;51.600;7.310;2022-09-01T12:48:05;3.25;;;1.17;;
14052;SDS011;7101;51.600;7.310;2022-09-01T12:50:36;2.00;;;1.30;;
14052;SDS011;7101;51.600;7.310;2022-09-01T12:53:22;2.03;;;1.20;;
14052;SDS011;7101;51.600;7.310;2022-09-01T12:58:46;2.55;;;1.33;;
14052;SDS011;7101;51.600;7.310;2022-09-01T13:06:51;3.83;;;1.20;;
14052;SDS011;7101;51.600;7.310;2022-09-01T13:09:19;6.60;;;1.20;;
14052;SDS011;7101;51.600;7.310;2022-09-01T13:11:46;3.33;;;1.10;;
14052;SDS011;7101;51.600;7.310;2022-09-01T13:14:15;2.13;;;1.20;;
14052;SDS011;7101;51.600;7.310;2022-09-01T13:16:43;1.83;;;1.10;;
14052;SDS011;7101;51.600;7.310;2022-09-01T13:19:10;2.40;;;1.20;;
14052;SDS011;7101;51.600;7.310;2022-09-01T13:21:37;3.30;;;1.10;;
14052;SDS011;7101;51.600;7.310;2022-09-01T13:24:04;2.70;;;1.02;;
14052;SDS011;7101;51.600;7.310;2022-09-01T13:26:32;1.83;;;1.10;;
14052;SDS011;7101;51.600;7.310;2022-09-01T13:28:59;1.98;;;1.20;;
14052;SDS011;7101;51.600;7.310;2022-09-01T13:31:27;1.73;;;1.10;;
14052;SDS011;7101;51.600;7.310;2022-09-01T13:33:55;2.17;;;1.00;;
14052;SDS011;7101;51.600;7.310;2022-09-01T13:36:23;2.63;;;1.20;;
14052;SDS011;7101;51.600;7.310;2022-09-01T13:38:50;4.47;;;1.10;;
14052;SDS011;7101;51.600;7.310;2022-09-01T13:41:17;3.20;;;1.00;;
14052;SDS011;7101;51.600;7.310;2022-09-01T13:43:43;4.00;;;1.10;;
14052;SDS011;7101;51.600;7.310;2022-09-01T13:46:11;2.28;;;1.20;;
14052;SDS011;7101;51.600;7.310;2022-09-01T13:48:39;2.50;;;1.42;;
14052;SDS011;7101;51.600;7.310;2022-09-01T13:51:06;4.78;;;1.20;;
14052;SDS011;7101;51.600;7.310;2022-09-01T13:53:34;3.17;;;1.20;;
14052;SDS011;7101;51.600;7.310;2022-09-01T13:56:02;3.92;;;1.17;;
14052;SDS011;7101;51.600;7.310;2022-09-01T13:58:29;3.03;;;1.58;;
14052;SDS011;7101;51.600;7.310;2022-09-01T14:00:55;1.77;;;1.13;;
14052;SDS011;7101;51.600;7.310;2022-09-01T14:03:23;1.88;;;0.90;;
14052;SDS011;7101;51.600;7.310;2022-09-01T14:05:51;2.55;;;1.17;;
14052;SDS011;7101;51.600;7.310;2022-09-01T14:08:19;2.60;;;1.13;;
14052;SDS011;7101;51.600;7.310;2022-09-01T14:10:47;1.83;;;1.20;;
14052;SDS011;7101;51.600;7.310;2022-09-01T14:13:16;6.28;;;1.30;;
14052;SDS011;7101;51.600;7.310;2022-09-01T14:15:43;3.35;;;1.40;;
14052;SDS011;7101;51.600;7.310;2022-09-01T14:18:11;1.58;;;1.20;;
14052;SDS011;7101;51.600;7.310;2022-09-01T14:20:41;3.42;;;1.38;;
14052;SDS011;7101;51.600;7.310;2022-09-01T14:23:11;4.55;;;1.20;;
14052;SDS011;7101;51.600;7.310;2022-09-01T14:25:43;3.78;;;1.08;;
14052;SDS011;7101;51.600;7.310;2022-09-01T14:28:11;1.75;;;1.10;;
14052;SDS011;7101;51.600;7.310;2022-09-01T14:30:39;1.85;;;1.00;;
14052;SDS011;7101;51.600;7.310;2022-09-01T14:33:07;1.60;;;1.13;;
14052;SDS011;7101;51.600;7.310;2022-09-01T14:35:37;1.95;;;1.10;;
14052;SDS011;7101;51.600;7.310;2022-09-01T14:38:04;4.15;;;1.50;;
14052;SDS011;7101;51.600;7.310;2022-09-01T14:40:34;3.63;;;1.30;;
14052;SDS011;7101;51.600;7.310;2022-09-01T14:43:03;7.78;;;1.13;;
14052;SDS011;7101;51.600;7.310;2022-09-01T14:45:30;1.50;;;1.00;;
14052;SDS011;7101;51.600;7.310;2022-09-01T14:47:58;1.95;;;1.05;;
14052;SDS011;7101;51.600;7.310;2022-09-01T14:50:26;2.33;;;1.25;;
14052;SDS011;7101;51.600;7.310;2022-09-01T14:52:56;4.10;;;1.20;;
14052;SDS011;7101;51.600;7.310;2022-09-01T14:55:25;2.10;;;1.02;;
14052;SDS011;7101;51.600;7.310;2022-09-01T14:57:55;1.77;;;0.90;;
14052;SDS011;7101;51.600;7.310;2022-09-01T15:00:23;1.38;;;1.00;;
14052;SDS011;7101;51.600;7.310;2022-09-01T15:02:50;1.83;;;1.17;;
14052;SDS011;7101;51.600;7.310;2022-09-01T15:05:18;2.17;;;1.20;;
14052;SDS011;7101;51.600;7.310;2022-09-01T15:07:45;4.90;;;1.20;;
14052;SDS011;7101;51.600;7.310;2022-09-01T15:10:13;2.95;;;0.98;;
14052;SDS011;7101;51.600;7.310;2022-09-01T15:12:41;3.35;;;1.17;;
14052;SDS011;7101;51.600;7.310;2022-09-01T15:15:10;4.30;;;1.23;;
14052;SDS011;7101;51.600;7.310;2022-09-01T15:17:37;3.85;;;1.20;;
14052;SDS011;7101;51.600;7.310;2022-09-01T15:20:04;5.50;;;1.05;;
14052;SDS011;7101;51.600;7.310;2022-09-01T15:22:49;2.55;;;1.23;;
14052;SDS011;7101;51.600;7.310;2022-09-01T15:25:16;2.03;;;1.10;;
14052;SDS011;7101;51.600;7.310;2022-09-01T15:27:43;1.45;;;1.15;;
14052;SDS011;7101;51.600;7.310;2022-09-01T15:30:12;3.83;;;1.23;;
14052;SDS011;7101;51.600;7.310;2022-09-01T15:32:41;2.55;;;1.10;;
14052;SDS011;7101;51.600;7.310;2022-09-01T15:35:08;2.70;;;0.95;;
14052;SDS011;7101;51.600;7.310;2022-09-01T15:37:35;4.28;;;1.10;;
14052;SDS011;7101;51.600;7.310;2022-09-01T15:40:04;4.10;;;1.00;;
14052;SDS011;7101;51.600;7.310;2022-09-01T15:42:32;5.68;;;1.40;;
14052;SDS011;7101;51.600;7.310;2022-09-01T15:44:59;4.32;;;1.20;;
14052;SDS011;7101;51.600;7.310;2022-09-01T15:47:29;3.25;;;1.33;;
14052;SDS011;7101;51.600;7.310;2022-09-01T15:49:56;3.10;;;1.10;;